sensor_id;sensor_type;location;lat;lon;timestamp;temperature;humidity
6520;DHT22;3293;51.690;5.982;2023-02-01T00:02:41;4.20;99.90
6520;DHT22;3293;51.690;5.982;2023-02-01T00:07:42;4.20;99.90
6520;DHT22;3293;51.690;5.982;2023-02-01T00:12:42;4.20;99.90
6520;DHT22;3293;51.690;5.982;2023-02-01T00:17:42;4.30;99.90
6520;DHT22;3293;51.690;5.982;2023-02-01T00:22:42;4.30;99.90
6520;DHT22;3293;51.690;5.982;2023-02-01T00:27:42;4.40;99.90
6520;DHT22;3293;51.690;5.982;2023-02-01T00:32:42;4.50;99.90
6520;DHT22;3293;51.690;5.982;2023-02-01T00:37:42;4.60;99.90
6520;DHT22;3293;51.690;5.982;2023-02-01T00:42:41;4.80;99.90
6520;DHT22;3293;51.690;5.982;2023-02-01T00:47:41;4.90;99.90
6520;DHT22;3293;51.690;5.982;2023-02-01T00:52:41;4.90;99.90
6520;DHT22;3293;51.690;5.982;2023-02-01T00:57:41;4.90;99.90
6520;DHT22;3293;51.690;5.982;2023-02-01T01:02:42;4.90;99.90
6520;DHT22;3293;51.690;5.982;2023-02-01T01:07:42;4.90;99.90
6520;DHT22;3293;51.690;5.982;2023-02-01T01:12:42;4.90;99.90
6520;DHT22;3293;51.690;5.982;2023-02-01T01:17:42;5.00;99.90
6520;DHT22;3293;51.690;5.982;2023-02-01T01:22:42;5.10;99.90
6520;DHT22;3293;51.690;5.982;2023-02-01T01:27:42;5.10;99.90
6520;DHT22;3293;51.690;5.982;2023-02-01T01:32:41;5.10;99.90
6520;DHT22;3293;51.690;5.982;2023-02-01T01:37:41;5.00;99.90
6520;DHT22;3293;51.690;5.982;2023-02-01T01:42:43;5.00;99.90
6520;DHT22;3293;51.690;5.982;2023-02-01T01:47:47;4.90;99.90
6520;DHT22;3293;51.690;5.982;2023-02-01T01:52:49;4.80;99.90
6520;DHT22;3293;51.690;5.982;2023-02-01T01:57:55;4.80;99.90
6520;DHT22;3293;51.690;5.982;2023-02-01T02:03:14;4.80;99.90
6520;DHT22;3293;51.690;5.982;2023-02-01T02:08:14;4.90;99.90
6520;DHT22;3293;51.690;5.982;2023-02-01T02:13:15;4.90;99.90
6520;DHT22;3293;51.690;5.982;2023-02-01T02:18:23;4.80;99.90
6520;DHT22;3293;51.690;5.982;2023-02-01T02:23:44;4.80;99.90
6520;DHT22;3293;51.690;5.982;2023-02-01T02:39:54;4.60;99.90
6520;DHT22;3293;51.690;5.982;2023-02-01T02:45:08;4.40;99.90
6520;DHT22;3293;51.690;5.982;2023-02-01T02:50:46;4.30;99.90
6520;DHT22;3293;51.690;5.982;2023-02-01T02:56:09;4.20;99.90
6520;DHT22;3293;51.690;5.982;2023-02-01T03:01:30;4.20;99.90
6520;DHT22;3293;51.690;5.982;2023-02-01T03:06:49;4.20;99.90
6520;DHT22;3293;51.690;5.982;2023-02-01T03:11:54;4.30;99.90
6520;DHT22;3293;51.690;5.982;2023-02-01T03:17:37;4.40;99.90
6520;DHT22;3293;51.690;5.982;2023-02-01T03:22:39;4.50;99.90
6520;DHT22;3293;51.690;5.982;2023-02-01T03:27:51;4.60;99.90
6520;DHT22;3293;51.690;5.982;2023-02-01T03:32:55;4.70;99.90
6520;DHT22;3293;51.690;5.982;2023-02-01T03:38:21;4.70;99.90
6520;DHT22;3293;51.690;5.982;2023-02-01T03:43:23;4.70;99.90
6520;DHT22;3293;51.690;5.982;2023-02-01T03:48:27;4.60;99.90
6520;DHT22;3293;51.690;5.982;2023-02-01T03:53:28;4.50;99.90
6520;DHT22;3293;51.690;5.982;2023-02-01T03:58:29;4.40;99.90
6520;DHT22;3293;51.690;5.982;2023-02-01T04:03:29;4.40;99.90
6520;DHT22;3293;51.690;5.982;2023-02-01T04:08:30;4.40;99.90
6520;DHT22;3293;51.690;5.982;2023-02-01T04:13:30;4.40;99.90
6520;DHT22;3293;51.690;5.982;2023-02-01T04:18:29;4.40;99.90
6520;DHT22;3293;51.690;5.982;2023-02-01T04:23:29;4.40;99.90
6520;DHT22;3293;51.690;5.982;2023-02-01T04:28:31;4.30;99.90
6520;DHT22;3293;51.690;5.982;2023-02-01T04:33:31;4.30;99.90
6520;DHT22;3293;51.690;5.982;2023-02-01T04:38:31;4.30;99.90
6520;DHT22;3293;51.690;5.982;2023-02-01T04:43:31;4.20;99.90
6520;DHT22;3293;51.690;5.982;2023-02-01T04:48:32;4.20;99.90
6520;DHT22;3293;51.690;5.982;2023-02-01T04:53:32;4.10;99.90
6520;DHT22;3293;51.690;5.982;2023-02-01T04:58:32;4.10;99.90
6520;DHT22;3293;51.690;5.982;2023-02-01T05:03:33;4.10;99.90
6520;DHT22;3293;51.690;5.982;2023-02-01T05:08:34;4.10;99.90
6520;DHT22;3293;51.690;5.982;2023-02-01T05:13:34;4.20;99.90
6520;DHT22;3293;51.690;5.982;2023-02-01T05:18:48;4.40;99.90
6520;DHT22;3293;51.690;5.982;2023-02-01T05:23:49;4.60;99.90
6520;DHT22;3293;51.690;5.982;2023-02-01T05:29:09;4.70;99.90
6520;DHT22;3293;51.690;5.982;2023-02-01T05:34:09;4.80;99.90
6520;DHT22;3293;51.690;5.982;2023-02-01T05:39:09;4.90;99.90
6520;DHT22;3293;51.690;5.982;2023-02-01T05:44:10;5.00;99.90
6520;DHT22;3293;51.690;5.982;2023-02-01T05:49:10;5.00;99.90
6520;DHT22;3293;51.690;5.982;2023-02-01T05:54:10;5.10;99.90
6520;DHT22;3293;51.690;5.982;2023-02-01T05:59:10;5.20;99.90
6520;DHT22;3293;51.690;5.982;2023-02-01T06:04:11;5.20;99.90
6520;DHT22;3293;51.690;5.982;2023-02-01T06:09:11;5.20;99.90
6520;DHT22;3293;51.690;5.982;2023-02-01T06:14:11;5.30;99.90
6520;DHT22;3293;51.690;5.982;2023-02-01T06:19:11;5.30;99.90
6520;DHT22;3293;51.690;5.982;2023-02-01T06:24:10;5.40;99.90
6520;DHT22;3293;51.690;5.982;2023-02-01T06:29:11;5.40;99.90
6520;DHT22;3293;51.690;5.982;2023-02-01T06:34:10;5.40;99.90
6520;DHT22;3293;51.690;5.982;2023-02-01T06:39:10;5.40;99.90
6520;DHT22;3293;51.690;5.982;2023-02-01T06:44:16;5.40;99.90
6520;DHT22;3293;51.690;5.982;2023-02-01T06:49:16;5.40;99.90
6520;DHT22;3293;51.690;5.982;2023-02-01T06:54:16;5.50;99.90
6520;DHT22;3293;51.690;5.982;2023-02-01T06:59:16;5.50;99.90
6520;DHT22;3293;51.690;5.982;2023-02-01T07:04:16;5.60;99.90
6520;DHT22;3293;51.690;5.982;2023-02-01T07:09:16;5.80;99.90
6520;DHT22;3293;51.690;5.982;2023-02-01T07:14:16;5.80;99.90
6520;DHT22;3293;51.690;5.982;2023-02-01T07:19:16;5.90;99.90
6520;DHT22;3293;51.690;5.982;2023-02-01T07:24:16;5.90;99.90
6520;DHT22;3293;51.690;5.982;2023-02-01T07:29:17;6.00;99.90
6520;DHT22;3293;51.690;5.982;2023-02-01T07:34:17;6.00;99.90
6520;DHT22;3293;51.690;5.982;2023-02-01T07:39:17;6.10;99.90
6520;DHT22;3293;51.690;5.982;2023-02-01T07:44:17;6.10;99.90
6520;DHT22;3293;51.690;5.982;2023-02-01T07:49:22;6.20;99.90
6520;DHT22;3293;51.690;5.982;2023-02-01T07:54:22;6.20;99.90
6520;DHT22;3293;51.690;5.982;2023-02-01T07:59:22;6.10;99.90
6520;DHT22;3293;51.690;5.982;2023-02-01T08:04:22;6.10;99.90
6520;DHT22;3293;51.690;5.982;2023-02-01T08:09:22;6.20;99.90
6520;DHT22;3293;51.690;5.982;2023-02-01T08:14:22;6.20;99.90
6520;DHT22;3293;51.690;5.982;2023-02-01T08:19:22;6.30;99.90
6520;DHT22;3293;51.690;5.982;2023-02-01T08:24:22;6.30;99.90
6520;DHT22;3293;51.690;5.982;2023-02-01T08:29:22;6.40;99.90
6520;DHT22;3293;51.690;5.982;2023-02-01T08:34:22;6.50;99.90
6520;DHT22;3293;51.690;5.982;2023-02-01T08:39:22;6.60;99.90
6520;DHT22;3293;51.690;5.982;2023-02-01T08:44:22;6.70;99.90
6520;DHT22;3293;51.690;5.982;2023-02-01T08:49:22;6.80;99.90
6520;DHT22;3293;51.690;5.982;2023-02-01T08:54:22;6.80;99.90
6520;DHT22;3293;51.690;5.982;2023-02-01T08:59:22;6.60;99.90
6520;DHT22;3293;51.690;5.982;2023-02-01T09:04:22;6.60;99.90
6520;DHT22;3293;51.690;5.982;2023-02-01T09:09:23;6.60;99.90
6520;DHT22;3293;51.690;5.982;2023-02-01T09:14:23;6.70;99.90
6520;DHT22;3293;51.690;5.982;2023-02-01T09:19:23;6.80;99.90
6520;DHT22;3293;51.690;5.982;2023-02-01T09:24:23;7.00;99.90
6520;DHT22;3293;51.690;5.982;2023-02-01T09:29:22;7.10;99.90
6520;DHT22;3293;51.690;5.982;2023-02-01T09:34:23;7.10;99.90
6520;DHT22;3293;51.690;5.982;2023-02-01T09:39:23;7.20;99.90
6520;DHT22;3293;51.690;5.982;2023-02-01T09:50:08;7.50;99.90
6520;DHT22;3293;51.690;5.982;2023-02-01T09:55:19;7.70;99.90
6520;DHT22;3293;51.690;5.982;2023-02-01T10:00:27;7.60;99.90
6520;DHT22;3293;51.690;5.982;2023-02-01T10:10:49;7.90;99.90
6520;DHT22;3293;51.690;5.982;2023-02-01T10:21:27;8.20;99.90
6520;DHT22;3293;51.690;5.982;2023-02-01T10:26:44;8.30;99.90
6520;DHT22;3293;51.690;5.982;2023-02-01T10:31:44;8.50;99.90
6520;DHT22;3293;51.690;5.982;2023-02-01T10:36:55;8.30;99.90
6520;DHT22;3293;51.690;5.982;2023-02-01T10:41:56;8.30;99.90
6520;DHT22;3293;51.690;5.982;2023-02-01T10:46:56;8.10;99.90
6520;DHT22;3293;51.690;5.982;2023-02-01T10:52:17;8.00;99.90
6520;DHT22;3293;51.690;5.982;2023-02-01T10:57:23;8.00;99.90
6520;DHT22;3293;51.690;5.982;2023-02-01T11:02:32;8.00;99.90
6520;DHT22;3293;51.690;5.982;2023-02-01T11:07:33;7.90;99.90
6520;DHT22;3293;51.690;5.982;2023-02-01T11:12:35;7.80;99.90
6520;DHT22;3293;51.690;5.982;2023-02-01T11:17:40;7.80;99.90
6520;DHT22;3293;51.690;5.982;2023-02-01T11:22:55;7.80;99.90
6520;DHT22;3293;51.690;5.982;2023-02-01T11:27:56;7.80;99.90
6520;DHT22;3293;51.690;5.982;2023-02-01T11:32:56;7.80;99.90
6520;DHT22;3293;51.690;5.982;2023-02-01T11:37:59;7.80;99.90
6520;DHT22;3293;51.690;5.982;2023-02-01T11:48:19;7.80;99.90
6520;DHT22;3293;51.690;5.982;2023-02-01T11:53:32;7.90;99.90
6520;DHT22;3293;51.690;5.982;2023-02-01T11:59:08;7.90;99.90
6520;DHT22;3293;51.690;5.982;2023-02-01T12:46:57;7.80;99.90
6520;DHT22;3293;51.690;5.982;2023-02-01T12:52:02;7.90;99.90
6520;DHT22;3293;51.690;5.982;2023-02-01T12:57:09;8.00;99.90
6520;DHT22;3293;51.690;5.982;2023-02-01T13:07:38;8.10;99.90
6520;DHT22;3293;51.690;5.982;2023-02-01T13:18:17;8.20;99.90
6520;DHT22;3293;51.690;5.982;2023-02-01T13:23:27;8.30;99.90
6520;DHT22;3293;51.690;5.982;2023-02-01T13:28:58;8.40;99.90
6520;DHT22;3293;51.690;5.982;2023-02-01T13:34:31;8.50;99.90
6520;DHT22;3293;51.690;5.982;2023-02-01T13:44:48;8.50;99.90
6520;DHT22;3293;51.690;5.982;2023-02-01T13:49:48;8.70;99.90
6520;DHT22;3293;51.690;5.982;2023-02-01T13:54:48;8.70;99.90
6520;DHT22;3293;51.690;5.982;2023-02-01T14:00:32;8.70;99.90
6520;DHT22;3293;51.690;5.982;2023-02-01T14:16:20;8.50;99.90
6520;DHT22;3293;51.690;5.982;2023-02-01T14:21:30;8.50;99.90
6520;DHT22;3293;51.690;5.982;2023-02-01T14:31:39;8.40;99.90
6520;DHT22;3293;51.690;5.982;2023-02-01T14:37:02;8.40;99.90
6520;DHT22;3293;51.690;5.982;2023-02-01T14:42:06;8.40;99.90
6520;DHT22;3293;51.690;5.982;2023-02-01T14:52:24;8.30;99.90
6520;DHT22;3293;51.690;5.982;2023-02-01T14:57:28;8.40;99.90
6520;DHT22;3293;51.690;5.982;2023-02-01T15:02:28;8.40;99.90
6520;DHT22;3293;51.690;5.982;2023-02-01T15:07:32;8.40;99.90
6520;DHT22;3293;51.690;5.982;2023-02-01T15:12:32;8.40;99.90
6520;DHT22;3293;51.690;5.982;2023-02-01T15:17:39;8.30;99.90
6520;DHT22;3293;51.690;5.982;2023-02-01T15:22:39;8.30;99.90
6520;DHT22;3293;51.690;5.982;2023-02-01T15:27:40;8.20;99.90
6520;DHT22;3293;51.690;5.982;2023-02-01T15:32:40;8.20;99.90
6520;DHT22;3293;51.690;5.982;2023-02-01T15:37:40;8.10;99.90
6520;DHT22;3293;51.690;5.982;2023-02-01T15:42:56;8.00;99.90
6520;DHT22;3293;51.690;5.982;2023-02-01T15:47:58;7.90;99.90
6520;DHT22;3293;51.690;5.982;2023-02-01T15:52:58;7.90;99.90
6520;DHT22;3293;51.690;5.982;2023-02-01T15:57:58;7.90;99.90
6520;DHT22;3293;51.690;5.982;2023-02-01T16:03:05;7.90;99.90
6520;DHT22;3293;51.690;5.982;2023-02-01T16:08:17;7.90;99.90
6520;DHT22;3293;51.690;5.982;2023-02-01T16:13:18;8.00;99.90
6520;DHT22;3293;51.690;5.982;2023-02-01T16:18:19;8.00;99.90
6520;DHT22;3293;51.690;5.982;2023-02-01T16:23:19;8.10;99.90
6520;DHT22;3293;51.690;5.982;2023-02-01T16:28:20;8.10;99.90
6520;DHT22;3293;51.690;5.982;2023-02-01T16:33:21;8.10;99.90
6520;DHT22;3293;51.690;5.982;2023-02-01T16:38:22;8.10;99.90
6520;DHT22;3293;51.690;5.982;2023-02-01T16:43:24;8.10;99.90
6520;DHT22;3293;51.690;5.982;2023-02-01T16:48:29;8.10;99.90
6520;DHT22;3293;51.690;5.982;2023-02-01T16:53:30;8.10;99.90
6520;DHT22;3293;51.690;5.982;2023-02-01T16:58:30;8.20;99.90
6520;DHT22;3293;51.690;5.982;2023-02-01T17:03:30;8.20;99.90
6520;DHT22;3293;51.690;5.982;2023-02-01T17:08:31;8.20;99.90
6520;DHT22;3293;51.690;5.982;2023-02-01T17:13:32;8.20;99.90
6520;DHT22;3293;51.690;5.982;2023-02-01T17:18:34;8.20;99.90
6520;DHT22;3293;51.690;5.982;2023-02-01T17:23:34;8.20;99.90
6520;DHT22;3293;51.690;5.982;2023-02-01T17:28:34;8.20;99.90
6520;DHT22;3293;51.690;5.982;2023-02-01T17:33:35;8.20;99.90
6520;DHT22;3293;51.690;5.982;2023-02-01T17:38:35;8.20;99.90
6520;DHT22;3293;51.690;5.982;2023-02-01T17:43:35;8.20;99.90
6520;DHT22;3293;51.690;5.982;2023-02-01T17:48:35;8.20;99.90
6520;DHT22;3293;51.690;5.982;2023-02-01T17:53:35;8.20;99.90
6520;DHT22;3293;51.690;5.982;2023-02-01T17:58:35;8.20;99.90
6520;DHT22;3293;51.690;5.982;2023-02-01T18:03:35;8.20;99.90
6520;DHT22;3293;51.690;5.982;2023-02-01T18:08:35;8.20;99.90
6520;DHT22;3293;51.690;5.982;2023-02-01T18:13:36;8.20;99.90
6520;DHT22;3293;51.690;5.982;2023-02-01T18:18:36;8.20;99.90
6520;DHT22;3293;51.690;5.982;2023-02-01T18:23:36;8.20;99.90
6520;DHT22;3293;51.690;5.982;2023-02-01T18:28:36;8.20;99.90
6520;DHT22;3293;51.690;5.982;2023-02-01T18:33:36;8.20;99.90
6520;DHT22;3293;51.690;5.982;2023-02-01T18:38:36;8.10;99.90
6520;DHT22;3293;51.690;5.982;2023-02-01T18:43:36;8.10;99.90
6520;DHT22;3293;51.690;5.982;2023-02-01T18:48:36;8.20;99.90
6520;DHT22;3293;51.690;5.982;2023-02-01T18:53:36;8.20;99.90
6520;DHT22;3293;51.690;5.982;2023-02-01T18:58:37;8.20;99.90
6520;DHT22;3293;51.690;5.982;2023-02-01T19:03:37;8.30;99.90
6520;DHT22;3293;51.690;5.982;2023-02-01T19:08:37;8.30;99.90
6520;DHT22;3293;51.690;5.982;2023-02-01T19:13:38;8.30;99.90
6520;DHT22;3293;51.690;5.982;2023-02-01T19:18:38;8.40;99.90
6520;DHT22;3293;51.690;5.982;2023-02-01T19:23:39;8.40;99.90
6520;DHT22;3293;51.690;5.982;2023-02-01T19:28:40;8.40;99.90
6520;DHT22;3293;51.690;5.982;2023-02-01T19:33:40;8.40;99.90
6520;DHT22;3293;51.690;5.982;2023-02-01T19:38:40;8.40;99.90
6520;DHT22;3293;51.690;5.982;2023-02-01T19:43:40;8.40;99.90
6520;DHT22;3293;51.690;5.982;2023-02-01T19:48:40;8.40;99.90
6520;DHT22;3293;51.690;5.982;2023-02-01T19:53:40;8.40;99.90
6520;DHT22;3293;51.690;5.982;2023-02-01T19:58:40;8.30;99.90
6520;DHT22;3293;51.690;5.982;2023-02-01T20:03:40;8.30;99.90
6520;DHT22;3293;51.690;5.982;2023-02-01T20:08:40;8.20;99.90
6520;DHT22;3293;51.690;5.982;2023-02-01T20:13:40;8.10;99.90
6520;DHT22;3293;51.690;5.982;2023-02-01T20:18:40;8.10;99.90
6520;DHT22;3293;51.690;5.982;2023-02-01T20:23:40;8.20;99.90
6520;DHT22;3293;51.690;5.982;2023-02-01T20:28:40;8.30;99.90
6520;DHT22;3293;51.690;5.982;2023-02-01T20:33:40;8.40;99.90
6520;DHT22;3293;51.690;5.982;2023-02-01T20:38:40;8.30;99.90
6520;DHT22;3293;51.690;5.982;2023-02-01T20:43:40;8.40;99.90
6520;DHT22;3293;51.690;5.982;2023-02-01T20:48:44;8.50;99.90
6520;DHT22;3293;51.690;5.982;2023-02-01T20:53:45;8.50;99.90
6520;DHT22;3293;51.690;5.982;2023-02-01T20:58:47;8.40;99.90
6520;DHT22;3293;51.690;5.982;2023-02-01T21:03:47;8.40;99.90
6520;DHT22;3293;51.690;5.982;2023-02-01T21:08:46;8.50;99.90
6520;DHT22;3293;51.690;5.982;2023-02-01T21:13:46;8.50;99.90
6520;DHT22;3293;51.690;5.982;2023-02-01T21:18:50;8.50;99.90
6520;DHT22;3293;51.690;5.982;2023-02-01T21:23:51;8.50;99.90
6520;DHT22;3293;51.690;5.982;2023-02-01T21:28:53;8.50;99.90
6520;DHT22;3293;51.690;5.982;2023-02-01T21:33:53;8.60;99.90
6520;DHT22;3293;51.690;5.982;2023-02-01T21:38:53;8.60;99.90
6520;DHT22;3293;51.690;5.982;2023-02-01T21:43:53;8.60;99.90
6520;DHT22;3293;51.690;5.982;2023-02-01T21:48:53;8.60;99.90
6520;DHT22;3293;51.690;5.982;2023-02-01T21:53:53;8.60;99.90
6520;DHT22;3293;51.690;5.982;2023-02-01T21:58:54;8.60;99.90
6520;DHT22;3293;51.690;5.982;2023-02-01T22:03:54;8.60;99.90
6520;DHT22;3293;51.690;5.982;2023-02-01T22:08:54;8.60;99.90
6520;DHT22;3293;51.690;5.982;2023-02-01T22:13:54;8.50;99.90
6520;DHT22;3293;51.690;5.982;2023-02-01T22:18:54;8.50;99.90
6520;DHT22;3293;51.690;5.982;2023-02-01T22:23:55;8.50;99.90
6520;DHT22;3293;51.690;5.982;2023-02-01T22:28:57;8.40;99.90
6520;DHT22;3293;51.690;5.982;2023-02-01T22:33:57;8.40;99.90
6520;DHT22;3293;51.690;5.982;2023-02-01T22:38:57;8.30;99.90
6520;DHT22;3293;51.690;5.982;2023-02-01T22:43:57;8.40;99.90
6520;DHT22;3293;51.690;5.982;2023-02-01T22:48:59;8.30;99.90
6520;DHT22;3293;51.690;5.982;2023-02-01T22:54:00;8.30;99.90
6520;DHT22;3293;51.690;5.982;2023-02-01T22:59:05;8.30;99.90
6520;DHT22;3293;51.690;5.982;2023-02-01T23:04:08;8.20;99.90
6520;DHT22;3293;51.690;5.982;2023-02-01T23:09:25;8.20;99.90
6520;DHT22;3293;51.690;5.982;2023-02-01T23:14:25;8.20;99.90
6520;DHT22;3293;51.690;5.982;2023-02-01T23:19:25;8.20;99.90
6520;DHT22;3293;51.690;5.982;2023-02-01T23:24:26;8.10;99.90
6520;DHT22;3293;51.690;5.982;2023-02-01T23:29:26;8.00;99.90
6520;DHT22;3293;51.690;5.982;2023-02-01T23:34:26;8.10;99.90
6520;DHT22;3293;51.690;5.982;2023-02-01T23:39:27;8.00;99.90
6520;DHT22;3293;51.690;5.982;2023-02-01T23:44:27;7.90;99.90
6520;DHT22;3293;51.690;5.982;2023-02-01T23:49:27;7.80;99.90
6520;DHT22;3293;51.690;5.982;2023-02-01T23:54:26;7.80;99.90
6520;DHT22;3293;51.690;5.982;2023-02-01T23:59:27;7.70;99.90
